sensor_id;sensor_type;location;lat;lon;timestamp;P1;durP1;ratioP1;P2;durP2;ratioP2
13571;SDS011;6857;53.484;10.216;2023-10-13T00:00:10;9.53;;;3.40;;
13571;SDS011;6857;53.484;10.216;2023-10-13T00:02:50;10.47;;;3.00;;
13571;SDS011;6857;53.484;10.216;2023-10-13T00:05:17;10.00;;;3.87;;
13571;SDS011;6857;53.484;10.216;2023-10-13T00:07:44;6.63;;;2.97;;
13571;SDS011;6857;53.484;10.216;2023-10-13T00:10:10;9.40;;;3.47;;
13571;SDS011;6857;53.484;10.216;2023-10-13T00:12:37;7.83;;;3.60;;
13571;SDS011;6857;53.484;10.216;2023-10-13T00:15:03;9.13;;;2.93;;
13571;SDS011;6857;53.484;10.216;2023-10-13T00:17:31;12.30;;;3.33;;
13571;SDS011;6857;53.484;10.216;2023-10-13T00:19:57;9.27;;;3.40;;
13571;SDS011;6857;53.484;10.216;2023-10-13T00:22:25;11.23;;;3.30;;
13571;SDS011;6857;53.484;10.216;2023-10-13T00:24:52;9.93;;;3.97;;
13571;SDS011;6857;53.484;10.216;2023-10-13T00:27:23;11.40;;;3.80;;
13571;SDS011;6857;53.484;10.216;2023-10-13T00:29:58;6.93;;;3.50;;
13571;SDS011;6857;53.484;10.216;2023-10-13T00:32:43;10.33;;;3.70;;
13571;SDS011;6857;53.484;10.216;2023-10-13T00:35:11;8.80;;;4.23;;
13571;SDS011;6857;53.484;10.216;2023-10-13T00:37:50;9.47;;;3.83;;
13571;SDS011;6857;53.484;10.216;2023-10-13T00:40:18;13.63;;;4.50;;
13571;SDS011;6857;53.484;10.216;2023-10-13T00:43:07;13.00;;;4.77;;
13571;SDS011;6857;53.484;10.216;2023-10-13T00:45:43;12.80;;;4.03;;
13571;SDS011;6857;53.484;10.216;2023-10-13T00:48:10;12.13;;;4.50;;
13571;SDS011;6857;53.484;10.216;2023-10-13T00:50:39;12.13;;;4.30;;
13571;SDS011;6857;53.484;10.216;2023-10-13T00:53:05;14.07;;;4.83;;
13571;SDS011;6857;53.484;10.216;2023-10-13T00:55:32;8.80;;;4.33;;
13571;SDS011;6857;53.484;10.216;2023-10-13T00:58:02;12.00;;;4.20;;
13571;SDS011;6857;53.484;10.216;2023-10-13T01:00:32;13.17;;;4.73;;
13571;SDS011;6857;53.484;10.216;2023-10-13T01:03:11;10.93;;;4.40;;
13571;SDS011;6857;53.484;10.216;2023-10-13T01:05:40;12.63;;;5.47;;
13571;SDS011;6857;53.484;10.216;2023-10-13T01:08:06;16.70;;;4.63;;
13571;SDS011;6857;53.484;10.216;2023-10-13T01:10:36;12.97;;;5.27;;
13571;SDS011;6857;53.484;10.216;2023-10-13T01:13:06;10.47;;;4.70;;
13571;SDS011;6857;53.484;10.216;2023-10-13T01:15:32;13.77;;;5.53;;
13571;SDS011;6857;53.484;10.216;2023-10-13T01:18:08;10.17;;;4.83;;
13571;SDS011;6857;53.484;10.216;2023-10-13T01:20:43;11.47;;;4.57;;
13571;SDS011;6857;53.484;10.216;2023-10-13T01:23:13;12.50;;;5.23;;
13571;SDS011;6857;53.484;10.216;2023-10-13T01:25:49;17.53;;;5.27;;
13571;SDS011;6857;53.484;10.216;2023-10-13T01:28:15;13.07;;;5.33;;
13571;SDS011;6857;53.484;10.216;2023-10-13T01:30:45;12.87;;;5.30;;
13571;SDS011;6857;53.484;10.216;2023-10-13T01:33:17;9.73;;;5.23;;
13571;SDS011;6857;53.484;10.216;2023-10-13T01:35:51;15.33;;;6.17;;
13571;SDS011;6857;53.484;10.216;2023-10-13T01:38:18;16.77;;;7.23;;
13571;SDS011;6857;53.484;10.216;2023-10-13T01:40:43;13.13;;;5.50;;
13571;SDS011;6857;53.484;10.216;2023-10-13T01:43:09;14.87;;;7.13;;
13571;SDS011;6857;53.484;10.216;2023-10-13T01:45:36;14.97;;;6.37;;
13571;SDS011;6857;53.484;10.216;2023-10-13T01:48:12;14.13;;;6.20;;
13571;SDS011;6857;53.484;10.216;2023-10-13T01:50:41;15.57;;;6.50;;
13571;SDS011;6857;53.484;10.216;2023-10-13T01:53:07;17.07;;;7.30;;
13571;SDS011;6857;53.484;10.216;2023-10-13T01:55:40;14.37;;;6.80;;
13571;SDS011;6857;53.484;10.216;2023-10-13T01:58:12;12.57;;;7.30;;
13571;SDS011;6857;53.484;10.216;2023-10-13T02:00:44;15.40;;;7.13;;
13571;SDS011;6857;53.484;10.216;2023-10-13T02:03:12;16.97;;;7.80;;
13571;SDS011;6857;53.484;10.216;2023-10-13T02:05:42;12.97;;;7.27;;
13571;SDS011;6857;53.484;10.216;2023-10-13T02:08:17;15.53;;;8.80;;
13571;SDS011;6857;53.484;10.216;2023-10-13T02:10:51;16.53;;;7.90;;
13571;SDS011;6857;53.484;10.216;2023-10-13T02:13:17;17.37;;;8.03;;
13571;SDS011;6857;53.484;10.216;2023-10-13T02:15:47;15.57;;;8.10;;
13571;SDS011;6857;53.484;10.216;2023-10-13T02:18:16;19.07;;;8.53;;
13571;SDS011;6857;53.484;10.216;2023-10-13T02:20:51;16.60;;;8.17;;
13571;SDS011;6857;53.484;10.216;2023-10-13T02:23:21;16.17;;;9.13;;
13571;SDS011;6857;53.484;10.216;2023-10-13T02:25:47;17.93;;;8.93;;
13571;SDS011;6857;53.484;10.216;2023-10-13T02:28:17;21.30;;;8.77;;
13571;SDS011;6857;53.484;10.216;2023-10-13T02:30:46;21.70;;;10.00;;
13571;SDS011;6857;53.484;10.216;2023-10-13T02:33:16;20.77;;;9.80;;
13571;SDS011;6857;53.484;10.216;2023-10-13T02:35:54;22.03;;;10.70;;
13571;SDS011;6857;53.484;10.216;2023-10-13T02:38:22;21.10;;;10.33;;
13571;SDS011;6857;53.484;10.216;2023-10-13T02:41:14;21.10;;;11.03;;
13571;SDS011;6857;53.484;10.216;2023-10-13T02:43:50;21.03;;;11.47;;
13571;SDS011;6857;53.484;10.216;2023-10-13T02:46:16;22.73;;;11.27;;
13571;SDS011;6857;53.484;10.216;2023-10-13T02:48:42;21.67;;;10.90;;
13571;SDS011;6857;53.484;10.216;2023-10-13T02:51:11;24.90;;;11.43;;
13571;SDS011;6857;53.484;10.216;2023-10-13T02:53:46;23.50;;;11.77;;
13571;SDS011;6857;53.484;10.216;2023-10-13T02:56:14;23.57;;;12.50;;
13571;SDS011;6857;53.484;10.216;2023-10-13T02:58:49;27.47;;;12.23;;
13571;SDS011;6857;53.484;10.216;2023-10-13T03:01:19;27.60;;;13.50;;
13571;SDS011;6857;53.484;10.216;2023-10-13T03:03:49;28.50;;;13.43;;
13571;SDS011;6857;53.484;10.216;2023-10-13T03:06:23;19.30;;;11.87;;
13571;SDS011;6857;53.484;10.216;2023-10-13T03:08:57;23.87;;;12.03;;
13571;SDS011;6857;53.484;10.216;2023-10-13T03:11:47;29.20;;;12.40;;
13571;SDS011;6857;53.484;10.216;2023-10-13T03:14:14;22.43;;;12.40;;
13571;SDS011;6857;53.484;10.216;2023-10-13T03:16:54;27.30;;;14.83;;
13571;SDS011;6857;53.484;10.216;2023-10-13T03:19:26;26.67;;;14.30;;
13571;SDS011;6857;53.484;10.216;2023-10-13T03:21:57;26.40;;;13.57;;
13571;SDS011;6857;53.484;10.216;2023-10-13T03:24:31;26.37;;;13.87;;
13571;SDS011;6857;53.484;10.216;2023-10-13T03:27:00;31.43;;;15.03;;
13571;SDS011;6857;53.484;10.216;2023-10-13T03:29:40;29.20;;;14.33;;
13571;SDS011;6857;53.484;10.216;2023-10-13T03:32:09;25.03;;;12.90;;
13571;SDS011;6857;53.484;10.216;2023-10-13T03:34:42;24.83;;;14.47;;
13571;SDS011;6857;53.484;10.216;2023-10-13T03:37:18;27.43;;;14.17;;
13571;SDS011;6857;53.484;10.216;2023-10-13T03:40:06;24.90;;;13.80;;
13571;SDS011;6857;53.484;10.216;2023-10-13T03:42:52;26.63;;;13.90;;
13571;SDS011;6857;53.484;10.216;2023-10-13T03:45:38;26.87;;;14.07;;
13571;SDS011;6857;53.484;10.216;2023-10-13T03:48:08;28.10;;;15.43;;
13571;SDS011;6857;53.484;10.216;2023-10-13T03:50:36;31.97;;;14.40;;
13571;SDS011;6857;53.484;10.216;2023-10-13T03:53:10;31.73;;;15.87;;
13571;SDS011;6857;53.484;10.216;2023-10-13T03:55:38;26.73;;;14.87;;
13571;SDS011;6857;53.484;10.216;2023-10-13T03:58:04;33.70;;;15.87;;
13571;SDS011;6857;53.484;10.216;2023-10-13T04:00:29;29.90;;;17.73;;
13571;SDS011;6857;53.484;10.216;2023-10-13T04:02:56;29.00;;;16.93;;
13571;SDS011;6857;53.484;10.216;2023-10-13T04:05:28;33.93;;;19.07;;
13571;SDS011;6857;53.484;10.216;2023-10-13T04:08:07;37.90;;;18.07;;
13571;SDS011;6857;53.484;10.216;2023-10-13T04:10:52;29.63;;;17.10;;
13571;SDS011;6857;53.484;10.216;2023-10-13T04:13:18;31.70;;;16.37;;
13571;SDS011;6857;53.484;10.216;2023-10-13T04:16:03;32.30;;;17.53;;
13571;SDS011;6857;53.484;10.216;2023-10-13T04:18:50;32.93;;;16.10;;
13571;SDS011;6857;53.484;10.216;2023-10-13T04:21:33;29.17;;;16.93;;
13571;SDS011;6857;53.484;10.216;2023-10-13T04:24:07;35.97;;;16.70;;
13571;SDS011;6857;53.484;10.216;2023-10-13T04:26:42;32.53;;;16.73;;
13571;SDS011;6857;53.484;10.216;2023-10-13T04:29:27;32.17;;;16.70;;
13571;SDS011;6857;53.484;10.216;2023-10-13T04:32:10;31.87;;;16.77;;
13571;SDS011;6857;53.484;10.216;2023-10-13T04:34:39;36.03;;;17.77;;
13571;SDS011;6857;53.484;10.216;2023-10-13T04:37:10;34.33;;;17.77;;
13571;SDS011;6857;53.484;10.216;2023-10-13T04:39:55;31.10;;;16.73;;
13571;SDS011;6857;53.484;10.216;2023-10-13T04:42:36;30.27;;;16.33;;
13571;SDS011;6857;53.484;10.216;2023-10-13T04:45:14;36.13;;;17.23;;
13571;SDS011;6857;53.484;10.216;2023-10-13T04:48:01;32.67;;;18.10;;
13571;SDS011;6857;53.484;10.216;2023-10-13T04:50:46;31.77;;;17.20;;
13571;SDS011;6857;53.484;10.216;2023-10-13T04:53:16;36.17;;;17.90;;
13571;SDS011;6857;53.484;10.216;2023-10-13T04:55:59;36.80;;;17.83;;
13571;SDS011;6857;53.484;10.216;2023-10-13T04:58:29;37.23;;;19.23;;
13571;SDS011;6857;53.484;10.216;2023-10-13T05:01:00;36.20;;;18.97;;
13571;SDS011;6857;53.484;10.216;2023-10-13T05:03:48;38.40;;;19.10;;
13571;SDS011;6857;53.484;10.216;2023-10-13T05:06:33;35.47;;;18.37;;
13571;SDS011;6857;53.484;10.216;2023-10-13T05:09:11;37.33;;;19.80;;
13571;SDS011;6857;53.484;10.216;2023-10-13T05:11:56;40.83;;;20.73;;
13571;SDS011;6857;53.484;10.216;2023-10-13T05:14:40;39.27;;;20.50;;
13571;SDS011;6857;53.484;10.216;2023-10-13T05:17:24;39.43;;;21.43;;
13571;SDS011;6857;53.484;10.216;2023-10-13T05:20:08;39.20;;;21.57;;
13571;SDS011;6857;53.484;10.216;2023-10-13T05:22:53;40.97;;;20.77;;
13571;SDS011;6857;53.484;10.216;2023-10-13T05:25:37;42.80;;;22.40;;
13571;SDS011;6857;53.484;10.216;2023-10-13T05:28:22;42.37;;;21.37;;
13571;SDS011;6857;53.484;10.216;2023-10-13T05:31:07;38.83;;;21.90;;
13571;SDS011;6857;53.484;10.216;2023-10-13T05:33:51;50.07;;;24.00;;
13571;SDS011;6857;53.484;10.216;2023-10-13T05:36:36;50.77;;;26.93;;
13571;SDS011;6857;53.484;10.216;2023-10-13T05:39:20;52.30;;;26.40;;
13571;SDS011;6857;53.484;10.216;2023-10-13T05:42:04;52.60;;;26.50;;
13571;SDS011;6857;53.484;10.216;2023-10-13T05:44:48;53.60;;;28.57;;
13571;SDS011;6857;53.484;10.216;2023-10-13T05:47:43;50.37;;;26.63;;
13571;SDS011;6857;53.484;10.216;2023-10-13T05:50:09;54.77;;;30.03;;
13571;SDS011;6857;53.484;10.216;2023-10-13T05:52:48;56.77;;;30.77;;
13571;SDS011;6857;53.484;10.216;2023-10-13T05:55:31;57.10;;;29.97;;
13571;SDS011;6857;53.484;10.216;2023-10-13T05:58:15;54.33;;;29.07;;
13571;SDS011;6857;53.484;10.216;2023-10-13T06:01:00;56.53;;;31.20;;
13571;SDS011;6857;53.484;10.216;2023-10-13T06:03:44;58.53;;;32.17;;
13571;SDS011;6857;53.484;10.216;2023-10-13T06:06:28;66.37;;;32.47;;
13571;SDS011;6857;53.484;10.216;2023-10-13T06:09:12;63.30;;;32.87;;
13571;SDS011;6857;53.484;10.216;2023-10-13T06:11:56;66.77;;;34.40;;
13571;SDS011;6857;53.484;10.216;2023-10-13T06:14:44;64.70;;;35.33;;
13571;SDS011;6857;53.484;10.216;2023-10-13T06:17:29;65.53;;;34.10;;
13571;SDS011;6857;53.484;10.216;2023-10-13T06:20:13;67.40;;;34.57;;
13571;SDS011;6857;53.484;10.216;2023-10-13T06:22:57;66.87;;;34.80;;
13571;SDS011;6857;53.484;10.216;2023-10-13T06:25:41;67.40;;;35.13;;
13571;SDS011;6857;53.484;10.216;2023-10-13T06:28:25;68.97;;;37.17;;
13571;SDS011;6857;53.484;10.216;2023-10-13T06:31:06;67.20;;;36.50;;
13571;SDS011;6857;53.484;10.216;2023-10-13T06:33:32;70.33;;;37.00;;
13571;SDS011;6857;53.484;10.216;2023-10-13T06:36:01;69.47;;;38.00;;
13571;SDS011;6857;53.484;10.216;2023-10-13T06:38:28;71.23;;;37.03;;
13571;SDS011;6857;53.484;10.216;2023-10-13T06:41:01;67.23;;;36.57;;
13571;SDS011;6857;53.484;10.216;2023-10-13T06:43:30;68.40;;;37.30;;
13571;SDS011;6857;53.484;10.216;2023-10-13T06:46:08;60.80;;;35.07;;
13571;SDS011;6857;53.484;10.216;2023-10-13T06:48:40;65.10;;;37.00;;
13571;SDS011;6857;53.484;10.216;2023-10-13T06:51:06;60.07;;;35.20;;
13571;SDS011;6857;53.484;10.216;2023-10-13T06:53:46;62.93;;;36.47;;
13571;SDS011;6857;53.484;10.216;2023-10-13T06:56:16;64.67;;;39.00;;
13571;SDS011;6857;53.484;10.216;2023-10-13T06:58:48;66.17;;;37.60;;
13571;SDS011;6857;53.484;10.216;2023-10-13T07:01:13;69.00;;;37.97;;
13571;SDS011;6857;53.484;10.216;2023-10-13T07:03:47;67.17;;;37.40;;
13571;SDS011;6857;53.484;10.216;2023-10-13T07:06:18;61.40;;;36.90;;
13571;SDS011;6857;53.484;10.216;2023-10-13T07:08:47;58.83;;;37.60;;
13571;SDS011;6857;53.484;10.216;2023-10-13T07:11:24;62.77;;;37.47;;
13571;SDS011;6857;53.484;10.216;2023-10-13T07:14:02;63.93;;;36.37;;
13571;SDS011;6857;53.484;10.216;2023-10-13T07:16:39;56.57;;;36.60;;
13571;SDS011;6857;53.484;10.216;2023-10-13T07:19:12;61.57;;;38.93;;
13571;SDS011;6857;53.484;10.216;2023-10-13T07:21:42;52.33;;;35.00;;
13571;SDS011;6857;53.484;10.216;2023-10-13T07:24:11;59.07;;;35.60;;
13571;SDS011;6857;53.484;10.216;2023-10-13T07:26:38;58.63;;;36.40;;
13571;SDS011;6857;53.484;10.216;2023-10-13T07:29:08;59.07;;;36.43;;
13571;SDS011;6857;53.484;10.216;2023-10-13T07:31:34;56.37;;;36.27;;
13571;SDS011;6857;53.484;10.216;2023-10-13T07:34:02;58.70;;;37.00;;
13571;SDS011;6857;53.484;10.216;2023-10-13T07:36:37;59.80;;;36.10;;
13571;SDS011;6857;53.484;10.216;2023-10-13T07:39:05;52.70;;;34.20;;
13571;SDS011;6857;53.484;10.216;2023-10-13T07:41:47;52.37;;;33.07;;
13571;SDS011;6857;53.484;10.216;2023-10-13T07:44:23;46.77;;;30.47;;
13571;SDS011;6857;53.484;10.216;2023-10-13T07:46:56;46.87;;;31.03;;
13571;SDS011;6857;53.484;10.216;2023-10-13T07:49:28;44.63;;;31.10;;
13571;SDS011;6857;53.484;10.216;2023-10-13T07:52:01;47.97;;;30.93;;
13571;SDS011;6857;53.484;10.216;2023-10-13T07:54:49;41.93;;;29.93;;
13571;SDS011;6857;53.484;10.216;2023-10-13T07:57:35;38.90;;;27.43;;
13571;SDS011;6857;53.484;10.216;2023-10-13T08:00:01;39.30;;;28.57;;
13571;SDS011;6857;53.484;10.216;2023-10-13T08:02:58;40.10;;;26.90;;
13571;SDS011;6857;53.484;10.216;2023-10-13T08:05:51;37.20;;;26.17;;
13571;SDS011;6857;53.484;10.216;2023-10-13T08:08:26;39.60;;;27.10;;
13571;SDS011;6857;53.484;10.216;2023-10-13T08:11:02;38.90;;;26.17;;
13571;SDS011;6857;53.484;10.216;2023-10-13T08:13:55;37.67;;;25.67;;
13571;SDS011;6857;53.484;10.216;2023-10-13T08:16:31;36.70;;;25.43;;
13571;SDS011;6857;53.484;10.216;2023-10-13T08:19:15;35.63;;;24.20;;
13571;SDS011;6857;53.484;10.216;2023-10-13T08:21:42;30.67;;;23.80;;
13571;SDS011;6857;53.484;10.216;2023-10-13T08:24:17;35.37;;;26.33;;
13571;SDS011;6857;53.484;10.216;2023-10-13T08:27:02;37.27;;;24.93;;
13571;SDS011;6857;53.484;10.216;2023-10-13T08:29:43;35.03;;;24.73;;
13571;SDS011;6857;53.484;10.216;2023-10-13T08:32:18;34.33;;;25.47;;
13571;SDS011;6857;53.484;10.216;2023-10-13T08:34:53;34.33;;;23.63;;
13571;SDS011;6857;53.484;10.216;2023-10-13T08:37:20;33.17;;;24.13;;
13571;SDS011;6857;53.484;10.216;2023-10-13T08:39:46;29.60;;;22.47;;
13571;SDS011;6857;53.484;10.216;2023-10-13T08:45:06;32.07;;;22.57;;
13571;SDS011;6857;53.484;10.216;2023-10-13T08:47:51;29.63;;;21.83;;
13571;SDS011;6857;53.484;10.216;2023-10-13T08:50:38;28.00;;;20.47;;
13571;SDS011;6857;53.484;10.216;2023-10-13T08:53:38;25.90;;;20.67;;
13571;SDS011;6857;53.484;10.216;2023-10-13T08:56:23;26.73;;;19.23;;
13571;SDS011;6857;53.484;10.216;2023-10-13T08:59:12;23.90;;;16.60;;
13571;SDS011;6857;53.484;10.216;2023-10-13T09:01:47;20.97;;;15.40;;
13571;SDS011;6857;53.484;10.216;2023-10-13T09:04:24;19.77;;;15.37;;
13571;SDS011;6857;53.484;10.216;2023-10-13T09:06:57;13.83;;;12.27;;
13571;SDS011;6857;53.484;10.216;2023-10-13T09:09:30;16.63;;;12.23;;
13571;SDS011;6857;53.484;10.216;2023-10-13T09:12:12;14.87;;;12.13;;
13571;SDS011;6857;53.484;10.216;2023-10-13T09:14:39;15.17;;;11.73;;
13571;SDS011;6857;53.484;10.216;2023-10-13T09:17:10;13.33;;;11.03;;
13571;SDS011;6857;53.484;10.216;2023-10-13T09:19:56;14.27;;;11.13;;
13571;SDS011;6857;53.484;10.216;2023-10-13T09:22:26;13.70;;;10.87;;
13571;SDS011;6857;53.484;10.216;2023-10-13T09:25:00;18.03;;;12.13;;
13571;SDS011;6857;53.484;10.216;2023-10-13T09:27:27;10.50;;;9.13;;
13571;SDS011;6857;53.484;10.216;2023-10-13T09:30:00;13.27;;;8.93;;
13571;SDS011;6857;53.484;10.216;2023-10-13T09:32:34;12.00;;;9.13;;
13571;SDS011;6857;53.484;10.216;2023-10-13T09:35:11;10.83;;;8.73;;
13571;SDS011;6857;53.484;10.216;2023-10-13T09:37:48;15.63;;;9.10;;
13571;SDS011;6857;53.484;10.216;2023-10-13T09:40:18;10.33;;;8.27;;
13571;SDS011;6857;53.484;10.216;2023-10-13T09:43:02;9.03;;;8.00;;
13571;SDS011;6857;53.484;10.216;2023-10-13T09:45:39;9.30;;;6.80;;
13571;SDS011;6857;53.484;10.216;2023-10-13T09:48:11;10.53;;;7.27;;
13571;SDS011;6857;53.484;10.216;2023-10-13T09:50:46;8.20;;;6.63;;
13571;SDS011;6857;53.484;10.216;2023-10-13T09:53:13;8.93;;;6.70;;
13571;SDS011;6857;53.484;10.216;2023-10-13T09:55:47;10.33;;;7.07;;
13571;SDS011;6857;53.484;10.216;2023-10-13T09:58:15;9.30;;;6.63;;
13571;SDS011;6857;53.484;10.216;2023-10-13T10:00:43;10.30;;;6.43;;
13571;SDS011;6857;53.484;10.216;2023-10-13T10:03:23;13.23;;;6.63;;
13571;SDS011;6857;53.484;10.216;2023-10-13T10:06:04;8.73;;;6.70;;
13571;SDS011;6857;53.484;10.216;2023-10-13T10:08:42;8.27;;;6.33;;
13571;SDS011;6857;53.484;10.216;2023-10-13T10:11:23;7.97;;;6.93;;
13571;SDS011;6857;53.484;10.216;2023-10-13T10:17:09;11.17;;;6.83;;
13571;SDS011;6857;53.484;10.216;2023-10-13T10:19:46;11.07;;;6.77;;
13571;SDS011;6857;53.484;10.216;2023-10-13T10:25:04;8.13;;;6.50;;
13571;SDS011;6857;53.484;10.216;2023-10-13T10:27:59;10.93;;;6.90;;
13571;SDS011;6857;53.484;10.216;2023-10-13T10:30:30;11.17;;;7.03;;
13571;SDS011;6857;53.484;10.216;2023-10-13T10:32:58;11.23;;;6.57;;
13571;SDS011;6857;53.484;10.216;2023-10-13T10:35:24;9.20;;;6.83;;
13571;SDS011;6857;53.484;10.216;2023-10-13T10:38:07;9.27;;;7.40;;
13571;SDS011;6857;53.484;10.216;2023-10-13T10:40:54;11.37;;;7.07;;
13571;SDS011;6857;53.484;10.216;2023-10-13T10:48:38;12.20;;;7.30;;
13571;SDS011;6857;53.484;10.216;2023-10-13T10:51:08;9.53;;;6.30;;
13571;SDS011;6857;53.484;10.216;2023-10-13T10:53:46;10.40;;;6.90;;
13571;SDS011;6857;53.484;10.216;2023-10-13T10:56:17;9.90;;;7.07;;
13571;SDS011;6857;53.484;10.216;2023-10-13T10:58:57;9.60;;;7.07;;
13571;SDS011;6857;53.484;10.216;2023-10-13T11:01:25;11.53;;;6.63;;
13571;SDS011;6857;53.484;10.216;2023-10-13T11:04:08;10.97;;;6.53;;
13571;SDS011;6857;53.484;10.216;2023-10-13T11:06:56;10.77;;;7.20;;
13571;SDS011;6857;53.484;10.216;2023-10-13T11:09:26;11.30;;;6.97;;
13571;SDS011;6857;53.484;10.216;2023-10-13T11:11:57;10.10;;;6.60;;
13571;SDS011;6857;53.484;10.216;2023-10-13T11:17:48;8.83;;;6.47;;
13571;SDS011;6857;53.484;10.216;2023-10-13T11:20:17;7.80;;;5.90;;
13571;SDS011;6857;53.484;10.216;2023-10-13T11:22:51;7.77;;;5.00;;
13571;SDS011;6857;53.484;10.216;2023-10-13T11:25:25;9.60;;;6.37;;
13571;SDS011;6857;53.484;10.216;2023-10-13T11:27:55;8.10;;;6.07;;
13571;SDS011;6857;53.484;10.216;2023-10-13T11:30:24;9.27;;;5.70;;
13571;SDS011;6857;53.484;10.216;2023-10-13T11:33:02;7.30;;;5.47;;
13571;SDS011;6857;53.484;10.216;2023-10-13T11:35:30;9.67;;;5.63;;
13571;SDS011;6857;53.484;10.216;2023-10-13T11:38:18;12.50;;;5.60;;
13571;SDS011;6857;53.484;10.216;2023-10-13T11:41:00;9.87;;;5.20;;
13571;SDS011;6857;53.484;10.216;2023-10-13T11:44:03;7.63;;;5.70;;
13571;SDS011;6857;53.484;10.216;2023-10-13T11:46:57;9.43;;;5.30;;
13571;SDS011;6857;53.484;10.216;2023-10-13T11:49:42;8.73;;;5.70;;
13571;SDS011;6857;53.484;10.216;2023-10-13T11:52:07;7.83;;;4.73;;
13571;SDS011;6857;53.484;10.216;2023-10-13T11:54:42;9.80;;;5.43;;
13571;SDS011;6857;53.484;10.216;2023-10-13T11:57:11;7.60;;;5.23;;
13571;SDS011;6857;53.484;10.216;2023-10-13T11:59:37;9.70;;;4.97;;
13571;SDS011;6857;53.484;10.216;2023-10-13T12:02:09;7.20;;;4.40;;
13571;SDS011;6857;53.484;10.216;2023-10-13T12:04:50;12.03;;;4.83;;
13571;SDS011;6857;53.484;10.216;2023-10-13T12:07:28;8.80;;;5.00;;
13571;SDS011;6857;53.484;10.216;2023-10-13T12:10:14;13.73;;;4.70;;
13571;SDS011;6857;53.484;10.216;2023-10-13T12:12:41;7.90;;;4.47;;
13571;SDS011;6857;53.484;10.216;2023-10-13T12:15:08;12.27;;;5.10;;
13571;SDS011;6857;53.484;10.216;2023-10-13T12:17:35;8.47;;;4.87;;
13571;SDS011;6857;53.484;10.216;2023-10-13T12:20:02;8.43;;;4.90;;
13571;SDS011;6857;53.484;10.216;2023-10-13T12:22:34;9.00;;;4.80;;
13571;SDS011;6857;53.484;10.216;2023-10-13T12:25:01;7.93;;;4.67;;
13571;SDS011;6857;53.484;10.216;2023-10-13T12:27:43;9.67;;;4.83;;
13571;SDS011;6857;53.484;10.216;2023-10-13T12:30:13;7.40;;;4.37;;
13571;SDS011;6857;53.484;10.216;2023-10-13T12:32:41;8.77;;;4.87;;
13571;SDS011;6857;53.484;10.216;2023-10-13T12:35:18;9.07;;;5.40;;
13571;SDS011;6857;53.484;10.216;2023-10-13T12:38:00;7.40;;;4.07;;
13571;SDS011;6857;53.484;10.216;2023-10-13T12:40:41;8.30;;;4.33;;
13571;SDS011;6857;53.484;10.216;2023-10-13T12:43:25;7.83;;;4.63;;
13571;SDS011;6857;53.484;10.216;2023-10-13T12:46:09;10.97;;;5.50;;
13571;SDS011;6857;53.484;10.216;2023-10-13T12:48:53;12.20;;;4.80;;
13571;SDS011;6857;53.484;10.216;2023-10-13T12:51:51;9.73;;;4.50;;
13571;SDS011;6857;53.484;10.216;2023-10-13T12:54:16;7.90;;;4.57;;
13571;SDS011;6857;53.484;10.216;2023-10-13T12:56:48;8.83;;;4.53;;
13571;SDS011;6857;53.484;10.216;2023-10-13T12:59:19;8.17;;;4.40;;
13571;SDS011;6857;53.484;10.216;2023-10-13T13:01:51;8.80;;;5.17;;
13571;SDS011;6857;53.484;10.216;2023-10-13T13:04:17;12.03;;;5.13;;
13571;SDS011;6857;53.484;10.216;2023-10-13T13:06:45;9.17;;;4.77;;
13571;SDS011;6857;53.484;10.216;2023-10-13T13:09:12;11.00;;;5.27;;
13571;SDS011;6857;53.484;10.216;2023-10-13T13:11:37;8.53;;;4.70;;
13571;SDS011;6857;53.484;10.216;2023-10-13T13:14:05;9.90;;;4.73;;
13571;SDS011;6857;53.484;10.216;2023-10-13T13:16:33;13.30;;;6.93;;
13571;SDS011;6857;53.484;10.216;2023-10-13T13:18:59;8.57;;;4.77;;
13571;SDS011;6857;53.484;10.216;2023-10-13T13:21:28;7.33;;;4.83;;
13571;SDS011;6857;53.484;10.216;2023-10-13T13:23:54;11.53;;;5.37;;
13571;SDS011;6857;53.484;10.216;2023-10-13T13:26:22;8.67;;;5.37;;
13571;SDS011;6857;53.484;10.216;2023-10-13T13:28:48;7.83;;;4.87;;
13571;SDS011;6857;53.484;10.216;2023-10-13T13:31:19;9.30;;;4.47;;
13571;SDS011;6857;53.484;10.216;2023-10-13T13:33:50;8.70;;;4.40;;
13571;SDS011;6857;53.484;10.216;2023-10-13T13:36:16;8.88;;;4.68;;
13571;SDS011;6857;53.484;10.216;2023-10-13T13:38:42;12.80;;;4.60;;
13571;SDS011;6857;53.484;10.216;2023-10-13T13:41:13;11.40;;;4.55;;
13571;SDS011;6857;53.484;10.216;2023-10-13T13:43:43;12.55;;;4.70;;
13571;SDS011;6857;53.484;10.216;2023-10-13T13:46:15;11.93;;;4.22;;
13571;SDS011;6857;53.484;10.216;2023-10-13T13:48:49;10.18;;;4.35;;
13571;SDS011;6857;53.484;10.216;2023-10-13T13:51:16;12.00;;;5.38;;
13571;SDS011;6857;53.484;10.216;2023-10-13T13:53:51;10.13;;;4.60;;
13571;SDS011;6857;53.484;10.216;2023-10-13T13:56:18;10.98;;;4.78;;
13571;SDS011;6857;53.484;10.216;2023-10-13T13:58:44;11.27;;;4.65;;
13571;SDS011;6857;53.484;10.216;2023-10-13T14:01:15;10.68;;;5.30;;
13571;SDS011;6857;53.484;10.216;2023-10-13T14:03:45;10.52;;;5.10;;
13571;SDS011;6857;53.484;10.216;2023-10-13T14:06:12;12.83;;;5.20;;
13571;SDS011;6857;53.484;10.216;2023-10-13T14:08:43;10.25;;;5.05;;
13571;SDS011;6857;53.484;10.216;2023-10-13T14:11:22;9.83;;;5.33;;
13571;SDS011;6857;53.484;10.216;2023-10-13T14:14:04;13.00;;;5.57;;
13571;SDS011;6857;53.484;10.216;2023-10-13T14:16:53;10.37;;;5.20;;
13571;SDS011;6857;53.484;10.216;2023-10-13T14:19:27;13.57;;;5.47;;
13571;SDS011;6857;53.484;10.216;2023-10-13T14:21:53;8.75;;;5.15;;
13571;SDS011;6857;53.484;10.216;2023-10-13T14:24:22;11.23;;;5.57;;
13571;SDS011;6857;53.484;10.216;2023-10-13T14:27:14;9.93;;;5.47;;
13571;SDS011;6857;53.484;10.216;2023-10-13T14:29:44;8.20;;;5.47;;
13571;SDS011;6857;53.484;10.216;2023-10-13T14:32:09;10.90;;;5.47;;
13571;SDS011;6857;53.484;10.216;2023-10-13T14:34:37;11.63;;;5.93;;
13571;SDS011;6857;53.484;10.216;2023-10-13T14:37:06;11.20;;;5.50;;
13571;SDS011;6857;53.484;10.216;2023-10-13T14:39:32;17.57;;;6.93;;
13571;SDS011;6857;53.484;10.216;2023-10-13T14:42:03;8.70;;;5.30;;
13571;SDS011;6857;53.484;10.216;2023-10-13T14:44:31;12.33;;;5.77;;
13571;SDS011;6857;53.484;10.216;2023-10-13T14:46:57;10.27;;;5.20;;
13571;SDS011;6857;53.484;10.216;2023-10-13T14:49:23;11.07;;;5.77;;
13571;SDS011;6857;53.484;10.216;2023-10-13T14:51:48;12.07;;;5.77;;
13571;SDS011;6857;53.484;10.216;2023-10-13T14:54:15;9.87;;;5.00;;
13571;SDS011;6857;53.484;10.216;2023-10-13T14:56:41;10.07;;;5.07;;
13571;SDS011;6857;53.484;10.216;2023-10-13T14:59:07;13.47;;;5.67;;
13571;SDS011;6857;53.484;10.216;2023-10-13T15:01:39;13.15;;;5.75;;
13571;SDS011;6857;53.484;10.216;2023-10-13T15:04:05;13.18;;;5.55;;
13571;SDS011;6857;53.484;10.216;2023-10-13T15:06:34;9.33;;;5.30;;
13571;SDS011;6857;53.484;10.216;2023-10-13T15:09:00;13.63;;;5.40;;
13571;SDS011;6857;53.484;10.216;2023-10-13T15:11:26;10.87;;;5.63;;
13571;SDS011;6857;53.484;10.216;2023-10-13T15:14:01;13.67;;;5.33;;
13571;SDS011;6857;53.484;10.216;2023-10-13T15:16:33;11.70;;;6.00;;
13571;SDS011;6857;53.484;10.216;2023-10-13T15:18:59;11.88;;;5.95;;
13571;SDS011;6857;53.484;10.216;2023-10-13T15:21:25;15.48;;;6.20;;
13571;SDS011;6857;53.484;10.216;2023-10-13T15:23:55;10.25;;;4.95;;
13571;SDS011;6857;53.484;10.216;2023-10-13T15:26:28;13.82;;;5.55;;
13571;SDS011;6857;53.484;10.216;2023-10-13T15:28:54;13.68;;;5.60;;